sensor_id;sensor_type;location;lat;lon;timestamp;P1;durP1;ratioP1;P2;durP2;ratioP2
8260;SDS011;64115;50.170;8.242;2024-03-02T00:01:31;16.57;;;13.30;;
8260;SDS011;64115;50.170;8.242;2024-03-02T00:03:57;17.83;;;13.43;;
8260;SDS011;64115;50.170;8.242;2024-03-02T00:06:24;17.97;;;13.67;;
8260;SDS011;64115;50.170;8.242;2024-03-02T00:08:51;17.60;;;13.80;;
8260;SDS011;64115;50.170;8.242;2024-03-02T00:11:23;18.47;;;14.23;;
8260;SDS011;64115;50.170;8.242;2024-03-02T00:13:50;18.00;;;13.77;;
8260;SDS011;64115;50.170;8.242;2024-03-02T00:16:19;20.40;;;14.17;;
8260;SDS011;64115;50.170;8.242;2024-03-02T00:18:47;20.47;;;14.30;;
8260;SDS011;64115;50.170;8.242;2024-03-02T00:21:14;17.97;;;14.20;;
8260;SDS011;64115;50.170;8.242;2024-03-02T00:23:43;19.60;;;14.43;;
8260;SDS011;64115;50.170;8.242;2024-03-02T00:26:10;19.07;;;14.60;;
8260;SDS011;64115;50.170;8.242;2024-03-02T00:28:38;19.20;;;14.77;;
8260;SDS011;64115;50.170;8.242;2024-03-02T00:31:09;19.90;;;14.13;;
8260;SDS011;64115;50.170;8.242;2024-03-02T00:33:39;16.33;;;13.47;;
8260;SDS011;64115;50.170;8.242;2024-03-02T00:36:09;20.60;;;14.73;;
8260;SDS011;64115;50.170;8.242;2024-03-02T00:38:42;22.40;;;16.00;;
8260;SDS011;64115;50.170;8.242;2024-03-02T00:41:15;18.10;;;13.67;;
8260;SDS011;64115;50.170;8.242;2024-03-02T00:43:47;16.97;;;13.23;;
8260;SDS011;64115;50.170;8.242;2024-03-02T00:46:19;16.57;;;14.33;;
8260;SDS011;64115;50.170;8.242;2024-03-02T00:48:56;16.27;;;12.87;;
8260;SDS011;64115;50.170;8.242;2024-03-02T00:51:25;18.00;;;12.73;;
8260;SDS011;64115;50.170;8.242;2024-03-02T00:53:54;15.17;;;12.60;;
8260;SDS011;64115;50.170;8.242;2024-03-02T00:56:22;15.17;;;12.77;;
8260;SDS011;64115;50.170;8.242;2024-03-02T00:58:49;16.80;;;13.47;;
8260;SDS011;64115;50.170;8.242;2024-03-02T01:01:16;16.67;;;12.87;;
8260;SDS011;64115;50.170;8.242;2024-03-02T01:03:43;16.37;;;13.10;;
8260;SDS011;64115;50.170;8.242;2024-03-02T01:06:10;18.97;;;14.23;;
8260;SDS011;64115;50.170;8.242;2024-03-02T01:08:38;17.63;;;12.63;;
8260;SDS011;64115;50.170;8.242;2024-03-02T01:11:05;18.37;;;14.47;;
8260;SDS011;64115;50.170;8.242;2024-03-02T01:13:32;19.93;;;14.23;;
8260;SDS011;64115;50.170;8.242;2024-03-02T01:15:59;22.27;;;15.30;;
8260;SDS011;64115;50.170;8.242;2024-03-02T01:18:26;21.23;;;15.60;;
8260;SDS011;64115;50.170;8.242;2024-03-02T01:20:53;21.47;;;15.67;;
8260;SDS011;64115;50.170;8.242;2024-03-02T01:23:21;21.77;;;16.17;;
8260;SDS011;64115;50.170;8.242;2024-03-02T01:25:49;21.97;;;15.33;;
8260;SDS011;64115;50.170;8.242;2024-03-02T01:28:16;20.87;;;15.60;;
8260;SDS011;64115;50.170;8.242;2024-03-02T01:30:43;22.10;;;16.57;;
8260;SDS011;64115;50.170;8.242;2024-03-02T01:33:10;22.27;;;16.27;;
8260;SDS011;64115;50.170;8.242;2024-03-02T01:35:37;23.67;;;17.10;;
8260;SDS011;64115;50.170;8.242;2024-03-02T01:38:04;20.77;;;16.13;;
8260;SDS011;64115;50.170;8.242;2024-03-02T01:40:32;23.50;;;17.73;;
8260;SDS011;64115;50.170;8.242;2024-03-02T01:43:01;24.93;;;17.30;;
8260;SDS011;64115;50.170;8.242;2024-03-02T01:45:28;23.17;;;16.33;;
8260;SDS011;64115;50.170;8.242;2024-03-02T01:47:54;19.90;;;15.70;;
8260;SDS011;64115;50.170;8.242;2024-03-02T01:50:25;23.10;;;17.27;;
8260;SDS011;64115;50.170;8.242;2024-03-02T01:52:53;21.03;;;15.80;;
8260;SDS011;64115;50.170;8.242;2024-03-02T01:55:20;20.90;;;15.73;;
8260;SDS011;64115;50.170;8.242;2024-03-02T01:57:47;22.97;;;15.77;;
8260;SDS011;64115;50.170;8.242;2024-03-02T02:00:17;19.07;;;14.53;;
8260;SDS011;64115;50.170;8.242;2024-03-02T02:02:44;22.40;;;16.30;;
8260;SDS011;64115;50.170;8.242;2024-03-02T02:05:12;21.13;;;16.10;;
8260;SDS011;64115;50.170;8.242;2024-03-02T02:07:39;23.73;;;16.17;;
8260;SDS011;64115;50.170;8.242;2024-03-02T02:10:06;21.23;;;15.97;;
8260;SDS011;64115;50.170;8.242;2024-03-02T02:12:34;20.07;;;15.43;;
8260;SDS011;64115;50.170;8.242;2024-03-02T02:15:01;21.40;;;15.17;;
8260;SDS011;64115;50.170;8.242;2024-03-02T02:17:29;20.97;;;15.13;;
8260;SDS011;64115;50.170;8.242;2024-03-02T02:19:56;19.00;;;14.67;;
8260;SDS011;64115;50.170;8.242;2024-03-02T02:22:24;21.03;;;15.00;;
8260;SDS011;64115;50.170;8.242;2024-03-02T02:24:51;19.90;;;14.27;;
8260;SDS011;64115;50.170;8.242;2024-03-02T02:27:17;19.23;;;15.03;;
8260;SDS011;64115;50.170;8.242;2024-03-02T02:29:44;19.57;;;14.23;;
8260;SDS011;64115;50.170;8.242;2024-03-02T02:32:11;18.67;;;14.67;;
8260;SDS011;64115;50.170;8.242;2024-03-02T02:34:37;19.30;;;14.83;;
8260;SDS011;64115;50.170;8.242;2024-03-02T02:37:04;21.27;;;14.53;;
8260;SDS011;64115;50.170;8.242;2024-03-02T02:39:32;22.47;;;14.83;;
8260;SDS011;64115;50.170;8.242;2024-03-02T02:41:59;21.80;;;15.37;;
8260;SDS011;64115;50.170;8.242;2024-03-02T02:44:27;25.13;;;16.23;;
8260;SDS011;64115;50.170;8.242;2024-03-02T02:46:54;19.73;;;15.07;;
8260;SDS011;64115;50.170;8.242;2024-03-02T02:49:21;20.60;;;14.87;;
8260;SDS011;64115;50.170;8.242;2024-03-02T02:51:48;19.80;;;14.17;;
8260;SDS011;64115;50.170;8.242;2024-03-02T02:54:14;19.63;;;14.13;;
8260;SDS011;64115;50.170;8.242;2024-03-02T02:56:42;19.63;;;14.23;;
8260;SDS011;64115;50.170;8.242;2024-03-02T02:59:09;21.50;;;14.57;;
8260;SDS011;64115;50.170;8.242;2024-03-02T03:01:36;19.33;;;14.23;;
8260;SDS011;64115;50.170;8.242;2024-03-02T03:04:03;21.53;;;14.17;;
8260;SDS011;64115;50.170;8.242;2024-03-02T03:06:30;19.77;;;14.27;;
8260;SDS011;64115;50.170;8.242;2024-03-02T03:08:56;20.90;;;14.80;;
8260;SDS011;64115;50.170;8.242;2024-03-02T03:11:23;20.73;;;15.10;;
8260;SDS011;64115;50.170;8.242;2024-03-02T03:13:52;19.73;;;13.60;;
8260;SDS011;64115;50.170;8.242;2024-03-02T03:16:20;19.07;;;13.93;;
8260;SDS011;64115;50.170;8.242;2024-03-02T03:18:46;18.53;;;13.67;;
8260;SDS011;64115;50.170;8.242;2024-03-02T03:21:15;19.33;;;13.80;;
8260;SDS011;64115;50.170;8.242;2024-03-02T03:23:42;16.47;;;12.13;;
8260;SDS011;64115;50.170;8.242;2024-03-02T03:26:08;15.20;;;11.57;;
8260;SDS011;64115;50.170;8.242;2024-03-02T03:28:35;13.80;;;11.13;;
8260;SDS011;64115;50.170;8.242;2024-03-02T03:31:03;14.10;;;11.30;;
8260;SDS011;64115;50.170;8.242;2024-03-02T03:33:30;15.50;;;11.90;;
8260;SDS011;64115;50.170;8.242;2024-03-02T03:35:57;13.60;;;11.13;;
8260;SDS011;64115;50.170;8.242;2024-03-02T03:38:24;15.40;;;11.53;;
8260;SDS011;64115;50.170;8.242;2024-03-02T03:40:50;14.03;;;11.27;;
8260;SDS011;64115;50.170;8.242;2024-03-02T03:43:17;14.83;;;11.47;;
8260;SDS011;64115;50.170;8.242;2024-03-02T03:45:44;12.80;;;11.03;;
8260;SDS011;64115;50.170;8.242;2024-03-02T03:48:12;17.00;;;11.80;;
8260;SDS011;64115;50.170;8.242;2024-03-02T03:50:38;14.90;;;11.97;;
8260;SDS011;64115;50.170;8.242;2024-03-02T03:53:05;14.00;;;11.00;;
8260;SDS011;64115;50.170;8.242;2024-03-02T03:55:32;15.67;;;11.40;;
8260;SDS011;64115;50.170;8.242;2024-03-02T03:57:59;14.97;;;12.03;;
8260;SDS011;64115;50.170;8.242;2024-03-02T04:00:25;16.33;;;11.83;;
8260;SDS011;64115;50.170;8.242;2024-03-02T04:02:52;15.20;;;11.67;;
8260;SDS011;64115;50.170;8.242;2024-03-02T04:05:20;14.47;;;11.50;;
8260;SDS011;64115;50.170;8.242;2024-03-02T04:07:47;14.63;;;11.60;;
8260;SDS011;64115;50.170;8.242;2024-03-02T04:10:13;15.97;;;11.03;;
8260;SDS011;64115;50.170;8.242;2024-03-02T04:12:42;12.00;;;10.27;;
8260;SDS011;64115;50.170;8.242;2024-03-02T04:15:09;11.37;;;9.20;;
8260;SDS011;64115;50.170;8.242;2024-03-02T04:17:35;13.50;;;10.67;;
8260;SDS011;64115;50.170;8.242;2024-03-02T04:20:02;12.40;;;9.57;;
8260;SDS011;64115;50.170;8.242;2024-03-02T04:22:33;12.80;;;10.37;;
8260;SDS011;64115;50.170;8.242;2024-03-02T04:25:00;12.17;;;10.13;;
8260;SDS011;64115;50.170;8.242;2024-03-02T04:27:27;12.43;;;10.20;;
8260;SDS011;64115;50.170;8.242;2024-03-02T04:29:53;12.57;;;10.97;;
8260;SDS011;64115;50.170;8.242;2024-03-02T04:32:20;13.33;;;11.33;;
8260;SDS011;64115;50.170;8.242;2024-03-02T04:34:47;13.30;;;10.73;;
8260;SDS011;64115;50.170;8.242;2024-03-02T04:37:14;15.43;;;10.20;;
8260;SDS011;64115;50.170;8.242;2024-03-02T04:39:42;13.53;;;10.27;;
8260;SDS011;64115;50.170;8.242;2024-03-02T04:42:08;10.83;;;9.13;;
8260;SDS011;64115;50.170;8.242;2024-03-02T04:44:35;12.03;;;9.47;;
8260;SDS011;64115;50.170;8.242;2024-03-02T04:47:03;12.47;;;9.67;;
8260;SDS011;64115;50.170;8.242;2024-03-02T04:49:30;11.03;;;9.20;;
8260;SDS011;64115;50.170;8.242;2024-03-02T04:51:56;12.40;;;9.07;;
8260;SDS011;64115;50.170;8.242;2024-03-02T04:54:23;9.17;;;8.03;;
8260;SDS011;64115;50.170;8.242;2024-03-02T04:56:51;8.97;;;8.07;;
8260;SDS011;64115;50.170;8.242;2024-03-02T04:59:18;11.73;;;9.20;;
8260;SDS011;64115;50.170;8.242;2024-03-02T05:01:45;9.90;;;8.33;;
8260;SDS011;64115;50.170;8.242;2024-03-02T05:04:13;11.60;;;8.57;;
8260;SDS011;64115;50.170;8.242;2024-03-02T05:06:40;9.97;;;8.43;;
8260;SDS011;64115;50.170;8.242;2024-03-02T05:09:07;12.13;;;9.17;;
8260;SDS011;64115;50.170;8.242;2024-03-02T05:11:34;9.90;;;8.17;;
8260;SDS011;64115;50.170;8.242;2024-03-02T05:14:36;10.40;;;8.77;;
8260;SDS011;64115;50.170;8.242;2024-03-02T05:17:02;10.47;;;8.63;;
8260;SDS011;64115;50.170;8.242;2024-03-02T05:19:29;10.43;;;8.27;;
8260;SDS011;64115;50.170;8.242;2024-03-02T05:21:56;9.93;;;8.93;;
8260;SDS011;64115;50.170;8.242;2024-03-02T05:24:22;8.73;;;7.80;;
8260;SDS011;64115;50.170;8.242;2024-03-02T05:26:49;10.03;;;8.10;;
8260;SDS011;64115;50.170;8.242;2024-03-02T05:29:16;9.20;;;8.30;;
8260;SDS011;64115;50.170;8.242;2024-03-02T05:31:44;8.57;;;7.47;;
8260;SDS011;64115;50.170;8.242;2024-03-02T05:34:10;8.13;;;7.23;;
8260;SDS011;64115;50.170;8.242;2024-03-02T05:36:37;7.93;;;7.23;;
8260;SDS011;64115;50.170;8.242;2024-03-02T05:39:04;8.63;;;7.63;;
8260;SDS011;64115;50.170;8.242;2024-03-02T05:41:34;7.73;;;6.77;;
8260;SDS011;64115;50.170;8.242;2024-03-02T05:44:00;7.57;;;6.77;;
8260;SDS011;64115;50.170;8.242;2024-03-02T05:46:27;6.87;;;6.27;;
8260;SDS011;64115;50.170;8.242;2024-03-02T05:48:55;6.90;;;6.27;;
8260;SDS011;64115;50.170;8.242;2024-03-02T05:51:22;6.77;;;6.10;;
8260;SDS011;64115;50.170;8.242;2024-03-02T05:53:49;7.50;;;6.80;;
8260;SDS011;64115;50.170;8.242;2024-03-02T05:56:16;6.67;;;5.87;;
8260;SDS011;64115;50.170;8.242;2024-03-02T05:58:42;6.10;;;5.50;;
8260;SDS011;64115;50.170;8.242;2024-03-02T06:01:22;6.20;;;5.50;;
8260;SDS011;64115;50.170;8.242;2024-03-02T06:03:53;5.23;;;4.83;;
8260;SDS011;64115;50.170;8.242;2024-03-02T06:06:22;6.20;;;5.60;;
8260;SDS011;64115;50.170;8.242;2024-03-02T06:08:49;5.97;;;5.40;;
8260;SDS011;64115;50.170;8.242;2024-03-02T06:11:16;6.07;;;5.50;;
8260;SDS011;64115;50.170;8.242;2024-03-02T06:13:43;5.90;;;5.40;;
8260;SDS011;64115;50.170;8.242;2024-03-02T06:16:09;6.07;;;5.47;;
8260;SDS011;64115;50.170;8.242;2024-03-02T06:18:36;6.10;;;5.60;;
8260;SDS011;64115;50.170;8.242;2024-03-02T06:21:04;6.10;;;5.50;;
8260;SDS011;64115;50.170;8.242;2024-03-02T06:23:31;6.00;;;5.50;;
8260;SDS011;64115;50.170;8.242;2024-03-02T06:25:58;6.30;;;5.70;;
8260;SDS011;64115;50.170;8.242;2024-03-02T06:28:25;5.97;;;5.33;;
8260;SDS011;64115;50.170;8.242;2024-03-02T06:30:51;5.90;;;5.40;;
8260;SDS011;64115;50.170;8.242;2024-03-02T06:33:19;5.57;;;5.07;;
8260;SDS011;64115;50.170;8.242;2024-03-02T06:35:45;5.70;;;5.20;;
8260;SDS011;64115;50.170;8.242;2024-03-02T06:38:15;6.57;;;5.30;;
8260;SDS011;64115;50.170;8.242;2024-03-02T06:40:42;6.27;;;4.63;;
8260;SDS011;64115;50.170;8.242;2024-03-02T06:43:09;5.20;;;4.70;;
8260;SDS011;64115;50.170;8.242;2024-03-02T06:45:35;5.33;;;4.83;;
8260;SDS011;64115;50.170;8.242;2024-03-02T06:48:03;5.20;;;4.70;;
8260;SDS011;64115;50.170;8.242;2024-03-02T06:50:30;6.20;;;5.60;;
8260;SDS011;64115;50.170;8.242;2024-03-02T06:52:57;5.03;;;4.53;;
8260;SDS011;64115;50.170;8.242;2024-03-02T06:55:25;4.83;;;4.23;;
8260;SDS011;64115;50.170;8.242;2024-03-02T06:57:51;4.93;;;4.40;;
8260;SDS011;64115;50.170;8.242;2024-03-02T07:00:18;4.80;;;4.20;;
8260;SDS011;64115;50.170;8.242;2024-03-02T07:02:46;4.20;;;3.90;;
8260;SDS011;64115;50.170;8.242;2024-03-02T07:05:13;4.20;;;3.90;;
8260;SDS011;64115;50.170;8.242;2024-03-02T07:07:40;4.07;;;3.67;;
8260;SDS011;64115;50.170;8.242;2024-03-02T07:10:07;3.50;;;3.30;;
8260;SDS011;64115;50.170;8.242;2024-03-02T07:12:35;3.83;;;3.57;;
8260;SDS011;64115;50.170;8.242;2024-03-02T07:15:02;3.77;;;3.47;;
8260;SDS011;64115;50.170;8.242;2024-03-02T07:17:52;3.67;;;3.40;;
8260;SDS011;64115;50.170;8.242;2024-03-02T07:20:19;3.90;;;3.50;;
8260;SDS011;64115;50.170;8.242;2024-03-02T07:22:46;4.10;;;3.80;;
8260;SDS011;64115;50.170;8.242;2024-03-02T07:25:13;3.80;;;3.50;;
8260;SDS011;64115;50.170;8.242;2024-03-02T07:27:41;3.90;;;3.60;;
8260;SDS011;64115;50.170;8.242;2024-03-02T07:30:09;3.60;;;3.30;;
8260;SDS011;64115;50.170;8.242;2024-03-02T07:32:41;3.40;;;3.20;;
8260;SDS011;64115;50.170;8.242;2024-03-02T07:35:10;3.87;;;3.57;;
8260;SDS011;64115;50.170;8.242;2024-03-02T07:37:37;3.40;;;3.10;;
8260;SDS011;64115;50.170;8.242;2024-03-02T07:40:04;3.40;;;3.10;;
8260;SDS011;64115;50.170;8.242;2024-03-02T07:42:36;4.43;;;3.30;;
8260;SDS011;64115;50.170;8.242;2024-03-02T07:45:05;3.93;;;3.63;;
8260;SDS011;64115;50.170;8.242;2024-03-02T07:47:32;3.93;;;3.33;;
8260;SDS011;64115;50.170;8.242;2024-03-02T07:49:59;3.37;;;3.07;;
8260;SDS011;64115;50.170;8.242;2024-03-02T07:52:26;3.73;;;3.43;;
8260;SDS011;64115;50.170;8.242;2024-03-02T07:54:53;3.90;;;3.60;;
8260;SDS011;64115;50.170;8.242;2024-03-02T07:57:20;3.50;;;3.30;;
8260;SDS011;64115;50.170;8.242;2024-03-02T07:59:47;3.70;;;3.40;;
8260;SDS011;64115;50.170;8.242;2024-03-02T08:02:15;4.47;;;4.07;;
8260;SDS011;64115;50.170;8.242;2024-03-02T08:04:42;4.40;;;4.03;;
8260;SDS011;64115;50.170;8.242;2024-03-02T08:07:10;3.87;;;3.57;;
8260;SDS011;64115;50.170;8.242;2024-03-02T08:09:37;3.80;;;3.50;;
8260;SDS011;64115;50.170;8.242;2024-03-02T08:12:04;3.70;;;3.40;;
8260;SDS011;64115;50.170;8.242;2024-03-02T08:14:31;3.40;;;3.20;;
8260;SDS011;64115;50.170;8.242;2024-03-02T08:16:58;3.80;;;3.50;;
8260;SDS011;64115;50.170;8.242;2024-03-02T08:19:27;3.73;;;3.43;;
8260;SDS011;64115;50.170;8.242;2024-03-02T08:21:55;4.07;;;3.77;;
8260;SDS011;64115;50.170;8.242;2024-03-02T08:24:21;4.00;;;3.70;;
8260;SDS011;64115;50.170;8.242;2024-03-02T08:26:48;3.83;;;3.53;;
8260;SDS011;64115;50.170;8.242;2024-03-02T08:29:15;3.60;;;3.30;;
8260;SDS011;64115;50.170;8.242;2024-03-02T08:31:42;3.87;;;3.57;;
8260;SDS011;64115;50.170;8.242;2024-03-02T08:34:08;3.87;;;3.57;;
8260;SDS011;64115;50.170;8.242;2024-03-02T08:36:36;3.77;;;3.47;;
8260;SDS011;64115;50.170;8.242;2024-03-02T08:39:04;4.43;;;4.07;;
8260;SDS011;64115;50.170;8.242;2024-03-02T08:41:40;4.87;;;4.37;;
8260;SDS011;64115;50.170;8.242;2024-03-02T08:44:07;4.47;;;4.17;;
8260;SDS011;64115;50.170;8.242;2024-03-02T08:46:33;5.37;;;4.40;;
8260;SDS011;64115;50.170;8.242;2024-03-02T08:49:00;4.97;;;4.30;;
8260;SDS011;64115;50.170;8.242;2024-03-02T08:51:27;4.73;;;3.67;;
8260;SDS011;64115;50.170;8.242;2024-03-02T08:53:56;4.77;;;4.37;;
8260;SDS011;64115;50.170;8.242;2024-03-02T08:56:22;4.60;;;4.20;;
8260;SDS011;64115;50.170;8.242;2024-03-02T08:58:49;4.77;;;4.30;;
8260;SDS011;64115;50.170;8.242;2024-03-02T09:01:16;4.93;;;4.53;;
8260;SDS011;64115;50.170;8.242;2024-03-02T09:03:44;5.27;;;4.30;;
8260;SDS011;64115;50.170;8.242;2024-03-02T09:06:11;4.70;;;4.30;;
8260;SDS011;64115;50.170;8.242;2024-03-02T09:08:38;4.97;;;4.47;;
8260;SDS011;64115;50.170;8.242;2024-03-02T09:11:06;4.27;;;3.87;;
8260;SDS011;64115;50.170;8.242;2024-03-02T09:13:33;5.83;;;5.27;;
8260;SDS011;64115;50.170;8.242;2024-03-02T09:16:00;5.70;;;5.20;;
8260;SDS011;64115;50.170;8.242;2024-03-02T09:18:27;5.17;;;4.77;;
8260;SDS011;64115;50.170;8.242;2024-03-02T09:20:54;5.40;;;5.00;;
8260;SDS011;64115;50.170;8.242;2024-03-02T09:23:21;6.17;;;5.63;;
8260;SDS011;64115;50.170;8.242;2024-03-02T09:25:48;5.17;;;4.77;;
8260;SDS011;64115;50.170;8.242;2024-03-02T09:28:16;6.00;;;5.50;;
8260;SDS011;64115;50.170;8.242;2024-03-02T09:30:43;6.40;;;5.83;;
8260;SDS011;64115;50.170;8.242;2024-03-02T09:33:10;6.27;;;5.63;;
8260;SDS011;64115;50.170;8.242;2024-03-02T09:35:37;5.20;;;4.73;;
8260;SDS011;64115;50.170;8.242;2024-03-02T09:38:03;5.57;;;5.07;;
8260;SDS011;64115;50.170;8.242;2024-03-02T09:40:30;5.90;;;5.40;;
8260;SDS011;64115;50.170;8.242;2024-03-02T09:42:58;5.47;;;4.83;;
8260;SDS011;64115;50.170;8.242;2024-03-02T09:45:26;6.03;;;5.50;;
8260;SDS011;64115;50.170;8.242;2024-03-02T09:47:53;5.43;;;5.03;;
8260;SDS011;64115;50.170;8.242;2024-03-02T09:50:21;5.60;;;5.10;;
8260;SDS011;64115;50.170;8.242;2024-03-02T09:52:48;5.60;;;5.10;;
8260;SDS011;64115;50.170;8.242;2024-03-02T09:55:15;5.90;;;5.40;;
8260;SDS011;64115;50.170;8.242;2024-03-02T09:57:43;5.83;;;5.33;;
8260;SDS011;64115;50.170;8.242;2024-03-02T10:00:11;7.00;;;5.53;;
8260;SDS011;64115;50.170;8.242;2024-03-02T10:02:41;6.17;;;5.60;;
8260;SDS011;64115;50.170;8.242;2024-03-02T10:05:08;6.40;;;5.80;;
8260;SDS011;64115;50.170;8.242;2024-03-02T10:07:35;5.80;;;5.30;;
8260;SDS011;64115;50.170;8.242;2024-03-02T10:10:12;5.93;;;5.43;;
8260;SDS011;64115;50.170;8.242;2024-03-02T10:12:39;6.43;;;5.93;;
8260;SDS011;64115;50.170;8.242;2024-03-02T10:15:06;5.90;;;5.40;;
8260;SDS011;64115;50.170;8.242;2024-03-02T10:17:34;5.73;;;5.27;;
8260;SDS011;64115;50.170;8.242;2024-03-02T10:22:50;5.33;;;4.60;;
8260;SDS011;64115;50.170;8.242;2024-03-02T10:25:30;7.43;;;5.60;;
8260;SDS011;64115;50.170;8.242;2024-03-02T10:27:57;5.97;;;5.30;;
8260;SDS011;64115;50.170;8.242;2024-03-02T10:30:25;6.13;;;5.63;;
8260;SDS011;64115;50.170;8.242;2024-03-02T10:32:52;5.43;;;5.03;;
8260;SDS011;64115;50.170;8.242;2024-03-02T10:35:20;6.67;;;5.97;;
8260;SDS011;64115;50.170;8.242;2024-03-02T10:37:49;7.00;;;6.40;;
8260;SDS011;64115;50.170;8.242;2024-03-02T10:40:17;6.47;;;5.90;;
8260;SDS011;64115;50.170;8.242;2024-03-02T10:42:44;7.77;;;6.97;;
8260;SDS011;64115;50.170;8.242;2024-03-02T10:45:11;7.87;;;7.07;;
8260;SDS011;64115;50.170;8.242;2024-03-02T10:47:41;7.47;;;6.67;;
8260;SDS011;64115;50.170;8.242;2024-03-02T10:50:09;6.93;;;6.23;;
8260;SDS011;64115;50.170;8.242;2024-03-02T10:52:36;7.77;;;6.80;;
8260;SDS011;64115;50.170;8.242;2024-03-02T10:55:06;5.53;;;5.10;;
8260;SDS011;64115;50.170;8.242;2024-03-02T10:57:36;5.87;;;5.37;;
8260;SDS011;64115;50.170;8.242;2024-03-02T11:00:11;5.77;;;5.27;;
8260;SDS011;64115;50.170;8.242;2024-03-02T11:02:40;4.90;;;4.50;;
8260;SDS011;64115;50.170;8.242;2024-03-02T11:05:13;5.43;;;4.93;;
8260;SDS011;64115;50.170;8.242;2024-03-02T11:07:45;4.97;;;4.57;;
8260;SDS011;64115;50.170;8.242;2024-03-02T11:10:13;4.97;;;4.57;;
8260;SDS011;64115;50.170;8.242;2024-03-02T11:12:44;5.43;;;4.90;;
8260;SDS011;64115;50.170;8.242;2024-03-02T11:15:18;5.23;;;4.73;;
8260;SDS011;64115;50.170;8.242;2024-03-02T11:17:45;4.87;;;4.47;;
8260;SDS011;64115;50.170;8.242;2024-03-02T11:20:13;5.17;;;4.70;;
8260;SDS011;64115;50.170;8.242;2024-03-02T11:22:44;3.90;;;3.60;;
8260;SDS011;64115;50.170;8.242;2024-03-02T11:25:23;4.10;;;3.77;;
8260;SDS011;64115;50.170;8.242;2024-03-02T11:28:03;4.07;;;3.37;;
8260;SDS011;64115;50.170;8.242;2024-03-02T11:30:49;4.17;;;3.77;;
8260;SDS011;64115;50.170;8.242;2024-03-02T11:33:26;4.00;;;3.10;;
8260;SDS011;64115;50.170;8.242;2024-03-02T11:35:55;4.17;;;3.73;;
8260;SDS011;64115;50.170;8.242;2024-03-02T11:38:27;3.70;;;3.37;;
8260;SDS011;64115;50.170;8.242;2024-03-02T11:40:55;3.93;;;3.63;;
8260;SDS011;64115;50.170;8.242;2024-03-02T11:43:23;4.13;;;3.73;;
8260;SDS011;64115;50.170;8.242;2024-03-02T11:45:56;3.70;;;3.40;;
8260;SDS011;64115;50.170;8.242;2024-03-02T11:48:23;3.20;;;3.00;;
8260;SDS011;64115;50.170;8.242;2024-03-02T11:50:51;3.57;;;3.30;;
8260;SDS011;64115;50.170;8.242;2024-03-02T11:53:19;3.70;;;3.40;;
8260;SDS011;64115;50.170;8.242;2024-03-02T11:55:46;3.63;;;3.33;;
8260;SDS011;64115;50.170;8.242;2024-03-02T11:58:16;3.70;;;3.40;;
8260;SDS011;64115;50.170;8.242;2024-03-02T12:00:45;3.50;;;3.20;;
8260;SDS011;64115;50.170;8.242;2024-03-02T12:03:13;3.53;;;3.33;;
8260;SDS011;64115;50.170;8.242;2024-03-02T12:05:40;3.20;;;2.90;;
8260;SDS011;64115;50.170;8.242;2024-03-02T12:08:07;3.00;;;2.80;;
8260;SDS011;64115;50.170;8.242;2024-03-02T12:10:34;3.30;;;3.00;;
8260;SDS011;64115;50.170;8.242;2024-03-02T12:13:03;2.63;;;2.43;;
8260;SDS011;64115;50.170;8.242;2024-03-02T12:15:33;3.43;;;2.70;;
8260;SDS011;64115;50.170;8.242;2024-03-02T12:18:01;2.73;;;2.50;;
8260;SDS011;64115;50.170;8.242;2024-03-02T12:20:29;3.23;;;2.77;;
8260;SDS011;64115;50.170;8.242;2024-03-02T12:22:58;2.53;;;2.33;;
8260;SDS011;64115;50.170;8.242;2024-03-02T12:25:26;3.10;;;2.50;;
8260;SDS011;64115;50.170;8.242;2024-03-02T12:27:54;3.00;;;2.70;;
8260;SDS011;64115;50.170;8.242;2024-03-02T12:30:22;2.50;;;2.40;;
8260;SDS011;64115;50.170;8.242;2024-03-02T12:32:50;2.80;;;2.50;;
8260;SDS011;64115;50.170;8.242;2024-03-02T12:35:17;3.77;;;3.30;;
8260;SDS011;64115;50.170;8.242;2024-03-02T12:37:45;4.40;;;4.00;;
8260;SDS011;64115;50.170;8.242;2024-03-02T12:40:13;2.63;;;2.43;;
8260;SDS011;64115;50.170;8.242;2024-03-02T12:42:44;3.00;;;2.80;;
8260;SDS011;64115;50.170;8.242;2024-03-02T12:45:12;2.93;;;2.63;;
8260;SDS011;64115;50.170;8.242;2024-03-02T12:47:40;2.43;;;2.33;;
8260;SDS011;64115;50.170;8.242;2024-03-02T12:50:09;2.80;;;2.60;;
8260;SDS011;64115;50.170;8.242;2024-03-02T12:52:36;2.50;;;2.30;;
8260;SDS011;64115;50.170;8.242;2024-03-02T12:55:03;3.17;;;2.87;;
8260;SDS011;64115;50.170;8.242;2024-03-02T12:57:32;3.00;;;2.80;;
8260;SDS011;64115;50.170;8.242;2024-03-02T12:59:59;2.80;;;2.60;;
8260;SDS011;64115;50.170;8.242;2024-03-02T13:02:30;2.70;;;2.40;;
8260;SDS011;64115;50.170;8.242;2024-03-02T13:04:57;2.53;;;2.33;;
8260;SDS011;64115;50.170;8.242;2024-03-02T13:07:26;2.97;;;2.77;;
8260;SDS011;64115;50.170;8.242;2024-03-02T13:09:53;2.80;;;2.60;;
8260;SDS011;64115;50.170;8.242;2024-03-02T13:12:21;4.50;;;2.47;;
8260;SDS011;64115;50.170;8.242;2024-03-02T13:14:48;2.17;;;1.97;;
8260;SDS011;64115;50.170;8.242;2024-03-02T13:17:17;2.40;;;2.30;;
8260;SDS011;64115;50.170;8.242;2024-03-02T13:19:50;2.20;;;2.10;;
8260;SDS011;64115;50.170;8.242;2024-03-02T13:22:18;2.10;;;1.80;;
8260;SDS011;64115;50.170;8.242;2024-03-02T13:24:47;1.90;;;1.80;;
8260;SDS011;64115;50.170;8.242;2024-03-02T13:27:13;1.70;;;1.60;;
8260;SDS011;64115;50.170;8.242;2024-03-02T13:29:41;1.97;;;1.87;;
8260;SDS011;64115;50.170;8.242;2024-03-02T13:32:07;2.10;;;1.90;;
8260;SDS011;64115;50.170;8.242;2024-03-02T13:34:34;2.30;;;1.83;;
8260;SDS011;64115;50.170;8.242;2024-03-02T13:37:02;2.23;;;1.90;;
8260;SDS011;64115;50.170;8.242;2024-03-02T13:39:30;2.33;;;1.97;;
8260;SDS011;64115;50.170;8.242;2024-03-02T13:41:59;2.20;;;2.10;;
8260;SDS011;64115;50.170;8.242;2024-03-02T13:44:29;2.30;;;2.10;;
8260;SDS011;64115;50.170;8.242;2024-03-02T13:46:56;2.10;;;1.70;;
8260;SDS011;64115;50.170;8.242;2024-03-02T13:49:23;3.37;;;2.10;;
8260;SDS011;64115;50.170;8.242;2024-03-02T13:51:53;2.30;;;2.10;;
8260;SDS011;64115;50.170;8.242;2024-03-02T13:54:21;5.60;;;2.13;;
8260;SDS011;64115;50.170;8.242;2024-03-02T13:56:48;2.03;;;1.93;;
8260;SDS011;64115;50.170;8.242;2024-03-02T13:59:16;2.53;;;1.93;;
8260;SDS011;64115;50.170;8.242;2024-03-02T14:01:44;2.27;;;1.87;;
8260;SDS011;64115;50.170;8.242;2024-03-02T14:04:11;2.13;;;2.03;;
8260;SDS011;64115;50.170;8.242;2024-03-02T14:06:38;3.00;;;2.07;;
8260;SDS011;64115;50.170;8.242;2024-03-02T14:09:05;2.00;;;1.80;;
8260;SDS011;64115;50.170;8.242;2024-03-02T14:11:31;2.10;;;2.00;;
8260;SDS011;64115;50.170;8.242;2024-03-02T14:13:58;1.63;;;1.53;;
8260;SDS011;64115;50.170;8.242;2024-03-02T14:16:26;2.43;;;2.00;;
8260;SDS011;64115;50.170;8.242;2024-03-02T14:18:53;2.20;;;2.00;;
8260;SDS011;64115;50.170;8.242;2024-03-02T14:21:20;2.07;;;1.90;;
8260;SDS011;64115;50.170;8.242;2024-03-02T14:23:46;2.37;;;2.17;;
8260;SDS011;64115;50.170;8.242;2024-03-02T14:29:36;2.87;;;2.50;;
8260;SDS011;64115;50.170;8.242;2024-03-02T14:32:06;2.70;;;2.50;;
8260;SDS011;64115;50.170;8.242;2024-03-02T14:34:33;2.83;;;2.63;;
8260;SDS011;64115;50.170;8.242;2024-03-02T14:37:00;3.20;;;3.00;;
8260;SDS011;64115;50.170;8.242;2024-03-02T14:39:27;2.93;;;2.73;;
8260;SDS011;64115;50.170;8.242;2024-03-02T14:41:55;2.80;;;2.60;;
8260;SDS011;64115;50.170;8.242;2024-03-02T14:44:21;2.87;;;2.60;;
8260;SDS011;64115;50.170;8.242;2024-03-02T14:46:48;2.80;;;2.60;;
8260;SDS011;64115;50.170;8.242;2024-03-02T14:49:17;2.00;;;1.90;;
8260;SDS011;64115;50.170;8.242;2024-03-02T14:51:44;2.63;;;2.43;;
8260;SDS011;64115;50.170;8.242;2024-03-02T14:54:10;2.90;;;2.37;;
8260;SDS011;64115;50.170;8.242;2024-03-02T14:56:37;2.93;;;2.73;;
8260;SDS011;64115;50.170;8.242;2024-03-02T14:59:04;3.50;;;3.20;;
8260;SDS011;64115;50.170;8.242;2024-03-02T15:01:31;4.00;;;3.60;;
8260;SDS011;64115;50.170;8.242;2024-03-02T15:03:58;3.40;;;3.10;;